Terminal Aerodrome Forecast
Issued by NWS

Home | Current Version | Previous Version | Text Only | Print | Product List | Glossary On
Versions: 1 2 3 4 5 6 7 8 9 10 11 12 13 14 15 16
000
FTUS44 KCRP 262325
TAFLRD
TAF
KLRD 262325Z 2700/2724 05008KT P6SM VCSH SCT025 OVC100
      TEMPO 2700/2703 4SM TSRA BR OVC015CB
     FM270300 01009KT P6SM VCSH OVC012
      TEMPO 2703/2706 5SM -SHRA
     FM270800 36011KT P6SM OVC015
     FM271800 35014KT P6SM BKN040=

USA.gov is the U.S. government's official web portal to all federal, state and local government web resources and services.